createdAt,value
2022-08-17T09:48:12.260Z,8.40
2022-08-17T09:51:05.993Z,11.05
2022-08-17T09:53:36.863Z,10.43
2022-08-17T09:56:09.863Z,11.65
2022-08-17T09:58:53.254Z,20.23
2022-08-17T10:01:41.081Z,14.70
2022-08-17T10:04:22.099Z,15.50
2022-08-17T11:30:02.542Z,23.00
2022-08-17T11:32:37.398Z,25.98
2022-08-17T11:35:21.241Z,18.45
2022-08-17T11:37:56.782Z,19.25
2022-08-17T11:40:42.081Z,23.05
2022-08-17T11:43:27.398Z,20.58
2022-08-17T11:46:13.907Z,18.00
2022-08-17T11:52:00.178Z,18.92
2022-08-17T11:54:33.410Z,22.75
2022-08-17T11:57:26.696Z,29.83
2022-08-17T12:00:00.970Z,18.50
2022-08-17T12:52:18.366Z,72.65
2022-08-17T12:55:07.364Z,76.57
2022-08-17T12:58:03.799Z,50.17
2022-08-17T13:00:47.757Z,48.53
2022-08-17T13:03:36.181Z,43.67
2022-08-17T13:06:10.151Z,37.47
2022-08-17T13:08:43.816Z,32.85
2022-08-17T13:11:20.480Z,37.40
2022-08-17T13:13:54.499Z,27.00
2022-08-17T13:19:18.926Z,29.95
2022-08-17T13:22:11.712Z,28.17
2022-08-17T13:27:12.130Z,43.08
2022-08-17T13:29:44.649Z,26.10
2022-08-17T13:45:39.425Z,26.33
2022-08-17T14:38:23.432Z,33.80
2022-08-17T14:50:41.845Z,23.60
2022-08-17T14:53:16.099Z,22.40
2022-08-17T14:55:45.824Z,20.77
2022-08-17T14:58:14.147Z,23.75
2022-08-17T15:00:43.710Z,20.23
2022-08-17T15:22:51.072Z,24.05
2022-08-17T15:25:19.378Z,26.05
2022-08-17T15:27:47.480Z,22.63
2022-08-17T15:30:15.188Z,30.52
2022-08-17T19:15:12.086Z,23.65
2022-08-17T19:49:09.490Z,26.42
2022-08-17T21:20:58.348Z,69.10
